TimeEDT,TemperatureF,Dew PointF,Humidity,Sea Level PressureIn,VisibilityMPH,Wind Direction,Wind SpeedMPH,Gust SpeedMPH,PrecipitationIn,Events,Conditions,WindDirDegrees,DateUTC
12:53 AM,57.9,50.0,75,30.24,10.0,SSE,3.5,-,N/A,,Clear,150,2013-08-24 04:53:00
1:53 AM,57.0,50.0,77,30.24,10.0,SE,3.5,-,N/A,,Clear,140,2013-08-24 05:53:00
2:53 AM,55.9,50.0,80,30.24,10.0,Calm,Calm,-,N/A,,Clear,0,2013-08-24 06:53:00
3:53 AM,55.9,50.0,80,30.25,10.0,South,4.6,-,N/A,,Clear,170,2013-08-24 07:53:00
4:53 AM,54.0,50.0,86,30.26,10.0,Calm,Calm,-,N/A,,Clear,0,2013-08-24 08:53:00
5:53 AM,55.0,53.1,93,30.27,10.0,South,4.6,-,N/A,,Clear,170,2013-08-24 09:53:00
6:53 AM,53.1,51.1,93,30.28,10.0,Calm,Calm,-,N/A,,Clear,0,2013-08-24 10:53:00
7:53 AM,55.9,51.1,84,30.31,10.0,SW,3.5,-,N/A,,Clear,230,2013-08-24 11:53:00
8:53 AM,62.1,48.9,62,30.31,10.0,SSW,8.1,-,N/A,,Clear,210,2013-08-24 12:53:00
9:53 AM,70.0,51.1,51,30.31,10.0,SW,9.2,-,N/A,,Clear,220,2013-08-24 13:53:00
10:53 AM,72.0,53.1,51,30.30,10.0,WSW,10.4,-,N/A,,Clear,240,2013-08-24 14:53:00
11:53 AM,75.0,50.0,41,30.29,10.0,West,6.9,-,N/A,,Clear,260,2013-08-24 15:53:00
12:53 PM,78.1,48.0,35,30.28,10.0,Variable,4.6,-,N/A,,Clear,0,2013-08-24 16:53:00
1:53 PM,80.1,48.0,32,30.27,10.0,SSW,8.1,-,N/A,,Clear,200,2013-08-24 17:53:00
2:53 PM,81.0,46.9,30,30.26,10.0,ESE,3.5,-,N/A,,Scattered Clouds,110,2013-08-24 18:53:00
3:53 PM,82.0,46.9,29,30.25,10.0,Calm,Calm,-,N/A,,Scattered Clouds,0,2013-08-24 19:53:00
5:53 PM,82.0,46.0,28,30.22,10.0,SSW,6.9,-,N/A,,Partly Cloudy,210,2013-08-24 21:53:00
6:53 PM,81.0,54.0,39,30.23,10.0,NNW,9.2,-,N/A,,Clear,330,2013-08-24 22:53:00
7:53 PM,75.9,55.0,48,30.24,10.0,Calm,Calm,-,N/A,,Clear,0,2013-08-24 23:53:00
8:53 PM,71.1,55.0,57,30.24,10.0,Calm,Calm,-,N/A,,Clear,0,2013-08-25 00:53:00
9:53 PM,68.0,55.0,63,30.24,10.0,Calm,Calm,-,N/A,,Clear,0,2013-08-25 01:53:00
10:53 PM,62.1,53.1,72,30.25,10.0,Calm,Calm,-,N/A,,Clear,0,2013-08-25 02:53:00
11:53 PM,62.1,53.1,72,30.23,10.0,Calm,Calm,-,N/A,,Clear,0,2013-08-25 03:53:00